Shell Knob, MO (65747)

11:07 AM CDT del 24 Ottobre 2014 (GMT -0500)
Cruise Inn | Change Station
CLOSE
Current Station
Stazione meteo personale
Location: Kimberling City, MO
Altitudine: 1132 ft
Stazioni meteo nelle vicinanze

Alt. 1132 ft 36.60 °N, 93.42 °W | Updated 10 seconds ago

Parzialmente nuvoloso
Parzialmente nuvoloso
60.4 °F
Sembra 60.4 °F
N
0.7
Vento Variabile Vento da SO
Gusts 3.8 mph

Oggi
Massima -- | Minima -- °F
--% Possibilità di precip.
Ieri
Massima -- | Minima -- °F
Precip. -- in
7:29 AM 6:26 PM
Luna nuova, 1% visible
Pressione 30.16 in
Visibilità 10.0 miglia
Nuvole Alcuni 3700 ft
Punto di rugiada 57 °F
Umidità 87%
Piovosità 0.00 in
Spessore del manto nevoso Non disponibile.
Raggi UV 1.0 fuori da 12
Polline 2.70 fuori da 12
Qualità dell'aria Non disponibile.
Flu Activity No Activity
METAR KFWB 241555Z AUTO 00000KT 10SM FEW037 17/13 A3016 RMK AO2

More Conditions Fewer Conditions

Pressione 30.16 in
Visibilità 10.0 miglia
Nuvole Alcuni 3700 ft
Punto di rugiada 57 °F
Umidità 87%
Piovosità 0.00 in
Spessore del manto nevoso Non disponibile.
Raggi UV 1.0 fuori da 12
Polline 2.70 fuori da 12
Qualità dell'aria Non disponibile.
Flu Activity No Activity
METAR KFWB 241555Z AUTO 00000KT 10SM FEW037 17/13 A3016 RMK AO2

More Conditions Fewer Conditions

10-Day Weather Forecast

Almanac

Astronomia

Oct. 24, 2014 Alba Tramonto
Ora attuale 07:29 CDT 18:26 CDT
Crepuscolo civile 07:03 CDT 18:52 CDT
Crepuscolo nautico 06:33 CDT 19:22 CDT
Crepuscolo astronomico 06:03 CDT 19:52 CDT
Luna 08:08 CDT 19:08 CDT
Estensione della luce visibile 11h 49m
Lunghezza del giorno
10h 56m
Tomorrow will be 2m 9s shorter.
Luna nuova, 1% of the Moon is Illuminated
Oggi
Luna nuova
Ott 30
Primo quarto
Nov 6
Luna piena
Nov 14
Ultimo quarto
Nov 22
Nuovo

Gli estremi di oggi

State Highs State Lows

Community

WunderPhotos

Upload Photos

1,764,597 foto caricate!

WunderBlogs® & News

Nearby

Profondità neve

Stazione Profondità Altitudine
Non sono state evidenziate nuove nevicate

Attività sismica

Città  Distanza Mag. Data & Ora
Non sono state riportate attività sismiche nelle vicinanze.
Minimo Magnitudo Mostrato è 2.5.

Temperature delle acque costiere

Località Temperatura
Nessun dato dalle stazioni

Stazioni meteo nelle vicinanze